createdAt,value
2019-05-20T00:00:15.155Z,13.69
2019-05-20T00:01:15.176Z,13.70
2019-05-20T00:02:24.502Z,13.69
2019-05-20T00:03:15.270Z,13.70
2019-05-20T00:04:15.348Z,13.71
2019-05-20T00:05:15.374Z,13.74
2019-05-20T00:06:15.424Z,13.67
2019-05-20T00:07:15.465Z,13.77
2019-05-20T00:08:15.515Z,13.84
2019-05-20T00:09:15.700Z,13.79
2019-05-20T00:10:15.628Z,13.79
2019-05-20T00:11:15.661Z,13.71
2019-05-20T00:12:15.723Z,13.62
2019-05-20T00:13:15.755Z,13.59
2019-05-20T00:14:15.806Z,13.63
2019-05-20T00:15:15.878Z,13.62
2019-05-20T00:16:15.901Z,13.61
2019-05-20T00:17:15.952Z,13.61
2019-05-20T00:18:15.998Z,13.63
2019-05-20T00:19:16.052Z,13.67
2019-05-20T00:20:16.204Z,13.67
2019-05-20T00:21:16.148Z,13.65
2019-05-20T00:22:16.194Z,13.70
2019-05-20T00:23:16.244Z,13.58
2019-05-20T00:24:16.290Z,13.74
2019-05-20T00:25:16.365Z,13.70
2019-05-20T00:26:16.387Z,13.69
2019-05-20T00:27:16.456Z,13.63
2019-05-20T00:28:16.496Z,13.71
2019-05-20T00:29:16.535Z,13.62
2019-05-20T00:30:16.604Z,13.62
2019-05-20T00:31:16.630Z,13.62
2019-05-20T00:32:16.681Z,13.61
2019-05-20T00:33:16.722Z,13.58
2019-05-20T00:34:16.771Z,13.63
2019-05-20T00:35:16.867Z,13.55
2019-05-20T00:36:16.875Z,13.62
2019-05-20T00:37:16.918Z,13.62
2019-05-20T00:38:17.010Z,13.56
2019-05-20T00:39:17.012Z,13.70
2019-05-20T00:40:17.087Z,13.55
2019-05-20T00:41:17.114Z,13.65
2019-05-20T00:42:17.158Z,13.67
2019-05-20T00:43:17.206Z,13.59
2019-05-20T00:44:17.259Z,13.61
2019-05-20T00:45:17.442Z,13.61
2019-05-20T00:46:17.367Z,13.54
2019-05-20T00:47:17.404Z,13.54
2019-05-20T00:48:17.449Z,13.59
2019-05-20T00:49:17.495Z,13.55
2019-05-20T00:50:17.546Z,13.63
2019-05-20T00:51:17.618Z,13.54
2019-05-20T00:52:17.717Z,13.55
2019-05-20T00:53:17.687Z,13.56
2019-05-20T00:54:17.745Z,13.54
2019-05-20T00:55:17.804Z,13.56
2019-05-20T00:56:17.860Z,13.62
2019-05-20T00:57:17.887Z,13.67
2019-05-20T00:58:17.949Z,13.62
2019-05-20T00:59:18.003Z,13.67
2019-05-20T01:00:18.033Z,13.59
2019-05-20T01:01:18.101Z,13.61
2019-05-20T01:02:18.122Z,13.56
2019-05-20T01:03:18.170Z,13.58
2019-05-20T01:04:18.227Z,13.49
2019-05-20T01:05:18.283Z,13.49
2019-05-20T01:06:18.341Z,13.46
2019-05-20T01:07:18.371Z,13.44
2019-05-20T01:08:18.458Z,13.43
2019-05-20T01:09:18.461Z,13.49
2019-05-20T01:10:18.511Z,13.43
2019-05-20T01:11:18.579Z,13.32
2019-05-20T01:12:18.626Z,13.38
2019-05-20T01:13:18.654Z,13.40
2019-05-20T01:14:18.733Z,13.49
2019-05-20T01:15:18.780Z,13.44
2019-05-20T01:16:18.840Z,13.44
2019-05-20T01:17:18.845Z,13.41
2019-05-20T01:18:18.893Z,13.43
2019-05-20T01:19:18.954Z,13.43
2019-05-20T01:20:18.995Z,13.44
2019-05-20T01:21:19.055Z,13.47
2019-05-20T01:22:19.105Z,13.55
2019-05-20T01:23:19.146Z,13.58
2019-05-20T01:24:19.184Z,13.55
2019-05-20T01:25:19.248Z,13.51
2019-05-20T01:26:19.295Z,13.44
2019-05-20T01:27:19.353Z,13.46
2019-05-20T01:28:19.375Z,13.51
2019-05-20T01:29:19.440Z,13.41
2019-05-20T01:30:19.602Z,13.44
2019-05-20T01:31:19.525Z,13.51
2019-05-20T01:32:19.604Z,13.49
2019-05-20T01:33:19.619Z,13.47
2019-05-20T01:34:19.669Z,13.56
2019-05-20T01:35:19.715Z,13.55
2019-05-20T01:36:19.764Z,13.51
2019-05-20T01:37:19.887Z,13.51
2019-05-20T01:38:19.868Z,13.47
2019-05-20T01:39:19.918Z,13.51
2019-05-20T01:40:19.953Z,13.55
2019-05-20T01:41:20.004Z,13.44
2019-05-20T01:42:20.069Z,13.55
2019-05-20T01:43:20.108Z,13.49
2019-05-20T01:44:20.152Z,13.46
2019-05-20T01:45:20.196Z,13.54
2019-05-20T01:46:20.243Z,13.44
2019-05-20T01:47:20.310Z,13.41
2019-05-20T01:48:20.343Z,13.47
2019-05-20T01:49:20.394Z,13.47
2019-05-20T01:50:20.437Z,13.47
2019-05-20T01:51:20.484Z,13.52
2019-05-20T01:52:20.572Z,13.52
2019-05-20T01:53:20.582Z,13.49
2019-05-20T01:54:20.639Z,13.49
2019-05-20T01:55:20.750Z,13.52
2019-05-20T01:56:20.729Z,13.55
2019-05-20T01:57:20.814Z,13.52
2019-05-20T01:58:20.826Z,13.52
2019-05-20T01:59:20.874Z,13.52
2019-05-20T02:00:20.935Z,13.47
2019-05-20T02:01:20.969Z,13.52
2019-05-20T02:02:21.054Z,13.47
2019-05-20T02:03:31.269Z,13.52
2019-05-20T02:04:21.117Z,13.56
2019-05-20T02:05:21.161Z,13.59
2019-05-20T02:06:21.262Z,13.54
2019-05-20T02:07:21.279Z,13.46
2019-05-20T02:08:21.331Z,13.56
2019-05-20T02:09:21.355Z,13.44
2019-05-20T02:10:21.405Z,13.46
2019-05-20T02:11:21.452Z,13.54
2019-05-20T02:12:21.503Z,13.44
2019-05-20T02:13:21.566Z,13.47
2019-05-20T02:14:21.604Z,13.46
2019-05-20T02:15:21.652Z,13.49
2019-05-20T02:16:21.697Z,13.52
2019-05-20T02:17:21.736Z,13.51
2019-05-20T02:18:21.807Z,13.44
2019-05-20T02:19:21.838Z,13.44
2019-05-20T02:20:21.886Z,13.41
2019-05-20T02:21:21.934Z,13.43
2019-05-20T02:22:21.978Z,13.46
2019-05-20T02:23:22.051Z,13.47
2019-05-20T02:24:22.112Z,13.43
2019-05-20T02:25:22.122Z,13.47
2019-05-20T02:26:22.173Z,13.41
2019-05-20T02:27:22.221Z,13.46
2019-05-20T02:28:22.337Z,13.41
2019-05-20T02:29:22.340Z,13.47
2019-05-20T02:30:22.366Z,13.44
2019-05-20T02:31:22.412Z,13.46
2019-05-20T02:32:22.468Z,13.54
2019-05-20T02:33:22.523Z,13.47
2019-05-20T02:34:22.594Z,13.54
2019-05-20T02:35:22.604Z,13.46
2019-05-20T02:36:22.659Z,13.40
2019-05-20T02:37:22.700Z,13.40
2019-05-20T02:38:22.757Z,13.47
2019-05-20T02:39:26.257Z,13.43
2019-05-20T02:40:22.871Z,13.36
2019-05-20T02:41:22.896Z,13.36
2019-05-20T02:42:23.044Z,13.43
2019-05-20T02:43:22.990Z,13.43
2019-05-20T02:44:23.055Z,13.36
2019-05-20T02:45:23.089Z,13.44
2019-05-20T02:46:23.159Z,13.43
2019-05-20T02:47:23.189Z,13.40
2019-05-20T02:48:23.266Z,13.43
2019-05-20T02:49:23.375Z,13.46
2019-05-20T02:50:23.327Z,13.40
2019-05-20T02:51:23.377Z,13.49
2019-05-20T02:52:23.422Z,13.41
2019-05-20T02:53:23.469Z,13.32
2019-05-20T02:54:23.554Z,13.36
2019-05-20T02:55:23.568Z,13.37
2019-05-20T02:56:23.617Z,13.36
2019-05-20T02:57:23.664Z,13.38
2019-05-20T02:58:23.710Z,13.40
2019-05-20T02:59:23.781Z,13.30
2019-05-20T03:00:23.820Z,13.32
2019-05-20T03:01:23.874Z,13.27
2019-05-20T03:02:23.900Z,13.29
2019-05-20T03:03:23.966Z,13.33
2019-05-20T03:04:24.024Z,13.43
2019-05-20T03:05:24.046Z,13.41
2019-05-20T03:06:24.094Z,13.41
2019-05-20T03:07:24.143Z,13.46
2019-05-20T03:08:24.298Z,13.44
2019-05-20T03:09:24.273Z,13.43
2019-05-20T03:10:24.289Z,13.55
2019-05-20T03:11:24.334Z,13.41
2019-05-20T03:12:24.382Z,13.41
2019-05-20T03:13:24.434Z,13.54
2019-05-20T03:14:24.506Z,13.43
2019-05-20T03:15:24.549Z,13.41
2019-05-20T03:16:24.632Z,13.49
2019-05-20T03:17:25.582Z,13.49
2019-05-20T03:18:24.673Z,13.58
2019-05-20T03:19:24.729Z,13.52
2019-05-20T03:20:24.790Z,13.44
2019-05-20T03:21:24.827Z,13.56
2019-05-20T03:22:24.866Z,13.52
2019-05-20T03:23:24.943Z,13.55
2019-05-20T03:24:24.973Z,13.56
2019-05-20T03:25:25.037Z,13.52
2019-05-20T03:26:25.069Z,13.58
2019-05-20T03:27:25.118Z,13.55
2019-05-20T03:28:25.159Z,13.51
2019-05-20T03:29:25.207Z,13.46
2019-05-20T03:30:25.284Z,13.54
2019-05-20T03:31:25.313Z,13.49
2019-05-20T03:32:25.351Z,13.46
2019-05-20T03:33:25.427Z,13.49
2019-05-20T03:34:45.943Z,13.49
2019-05-20T03:35:25.520Z,13.49
2019-05-20T03:36:25.551Z,13.47
2019-05-20T03:37:25.586Z,13.49
2019-05-20T03:38:25.636Z,13.40
2019-05-20T03:39:25.690Z,13.51
2019-05-20T03:40:25.751Z,13.56
2019-05-20T03:41:25.846Z,13.46
2019-05-20T03:42:25.832Z,13.43
2019-05-20T03:43:25.873Z,13.44
2019-05-20T03:44:25.932Z,13.38
2019-05-20T03:45:26.002Z,13.44
2019-05-20T03:46:26.036Z,13.49
2019-05-20T03:47:26.068Z,13.43
2019-05-20T03:48:26.122Z,13.47
2019-05-20T03:49:26.164Z,13.55
2019-05-20T03:50:26.213Z,13.46
2019-05-20T03:51:26.286Z,13.54
2019-05-20T03:52:26.309Z,13.44
2019-05-20T03:53:26.359Z,13.49
2019-05-20T03:54:26.414Z,13.46
2019-05-20T03:55:26.466Z,13.54
2019-05-20T03:56:26.524Z,13.46
2019-05-20T03:57:26.545Z,13.58
2019-05-20T03:58:26.603Z,13.56
2019-05-20T03:59:26.648Z,13.55
2019-05-20T04:00:26.695Z,13.54
2019-05-20T04:01:26.761Z,13.51
2019-05-20T04:02:26.793Z,13.49
2019-05-20T04:03:26.964Z,13.55
2019-05-20T04:04:26.890Z,13.51
2019-05-20T04:05:26.938Z,13.54
2019-05-20T04:06:27.007Z,13.46
2019-05-20T04:07:27.036Z,13.46
2019-05-20T04:08:27.078Z,13.37
2019-05-20T04:09:27.129Z,13.40
2019-05-20T04:10:27.286Z,13.44
2019-05-20T04:11:27.245Z,13.40
2019-05-20T04:12:27.274Z,13.43
2019-05-20T04:13:27.324Z,13.40
2019-05-20T04:14:27.391Z,13.37
2019-05-20T04:15:27.423Z,13.37
2019-05-20T04:16:27.555Z,13.36
2019-05-20T04:17:27.530Z,13.41
2019-05-20T04:18:27.564Z,13.38
2019-05-20T04:19:27.617Z,13.43
2019-05-20T04:20:27.656Z,13.43
2019-05-20T04:21:27.729Z,13.38
2019-05-20T04:22:27.775Z,13.41
2019-05-20T04:23:27.803Z,13.41
2019-05-20T04:24:27.866Z,13.43
2019-05-20T04:25:27.903Z,13.44
2019-05-20T04:26:27.950Z,13.40
2019-05-20T04:27:28.014Z,13.30
2019-05-20T04:28:28.133Z,13.38
2019-05-20T04:29:28.092Z,13.36
2019-05-20T04:30:28.138Z,13.37
2019-05-20T04:31:28.189Z,13.37
2019-05-20T04:32:28.255Z,13.36
2019-05-20T04:33:28.282Z,13.41
2019-05-20T04:34:28.335Z,13.40
2019-05-20T04:35:28.394Z,13.27
2019-05-20T04:36:28.424Z,13.33
2019-05-20T04:37:28.499Z,13.37
2019-05-20T04:38:28.542Z,13.32
2019-05-20T04:39:28.576Z,13.38
2019-05-20T04:40:28.618Z,13.32
2019-05-20T04:41:28.665Z,13.33
2019-05-20T04:42:28.743Z,13.38
2019-05-20T04:43:28.782Z,13.36
2019-05-20T04:44:28.810Z,13.38
2019-05-20T04:45:28.857Z,13.32
2019-05-20T04:46:28.908Z,13.33
2019-05-20T04:47:28.979Z,13.37
2019-05-20T04:48:29.023Z,13.36
2019-05-20T04:49:29.052Z,13.32
2019-05-20T04:50:29.109Z,13.36
2019-05-20T04:51:29.190Z,13.37
2019-05-20T04:52:29.223Z,13.44
2019-05-20T04:53:29.265Z,13.44
2019-05-20T04:54:29.295Z,13.36
2019-05-20T04:55:29.347Z,13.32
2019-05-20T04:56:29.576Z,13.38
2019-05-20T04:57:29.456Z,13.38
2019-05-20T04:58:29.513Z,13.37
2019-05-20T04:59:29.533Z,13.41
2019-05-20T05:00:29.579Z,13.46
2019-05-20T05:01:29.622Z,13.47
2019-05-20T05:02:29.696Z,13.43
2019-05-20T05:03:29.755Z,13.43
2019-05-20T05:04:29.799Z,13.38
2019-05-20T05:05:37.788Z,13.51
2019-05-20T05:06:29.877Z,13.43
2019-05-20T05:07:29.923Z,13.38
2019-05-20T05:08:30.009Z,13.37
2019-05-20T05:09:30.013Z,13.36
2019-05-20T05:10:30.062Z,13.36
2019-05-20T05:11:30.108Z,13.29
2019-05-20T05:12:30.239Z,13.20
2019-05-20T05:13:30.223Z,13.25
2019-05-20T05:14:30.252Z,13.17
2019-05-20T05:15:30.311Z,13.22
2019-05-20T05:16:30.350Z,13.17
2019-05-20T05:17:30.395Z,13.25
2019-05-20T05:18:30.487Z,13.32
2019-05-20T05:19:30.568Z,13.21
2019-05-20T05:20:30.549Z,13.29
2019-05-20T05:21:30.591Z,13.21
2019-05-20T05:22:30.636Z,13.30
2019-05-20T05:23:30.777Z,13.27
2019-05-20T05:24:30.745Z,13.20
2019-05-20T05:25:30.792Z,13.37
2019-05-20T05:26:30.831Z,13.38
2019-05-20T05:27:30.879Z,13.33
2019-05-20T05:28:31.018Z,13.38
2019-05-20T05:29:30.980Z,13.43
2019-05-20T05:30:31.028Z,13.38
2019-05-20T05:31:31.077Z,13.44
2019-05-20T05:32:31.173Z,13.41
2019-05-20T05:33:31.185Z,13.40
2019-05-20T05:34:31.229Z,13.40
2019-05-20T05:35:31.304Z,13.44
2019-05-20T05:36:31.311Z,13.49
2019-05-20T05:37:31.358Z,13.43
2019-05-20T05:38:31.405Z,13.44
2019-05-20T05:39:31.554Z,13.36
2019-05-20T05:40:31.508Z,13.33
2019-05-20T05:41:31.551Z,13.30
2019-05-20T05:42:31.605Z,13.41
2019-05-20T05:43:31.644Z,13.40
2019-05-20T05:44:31.712Z,13.41
2019-05-20T05:45:31.742Z,13.38
2019-05-20T05:46:31.804Z,13.52
2019-05-20T05:47:31.836Z,13.43
2019-05-20T05:48:31.887Z,13.51
2019-05-20T05:49:31.956Z,13.54
2019-05-20T05:50:32.119Z,13.58
2019-05-20T05:51:32.029Z,13.52
2019-05-20T05:52:32.078Z,13.40
2019-05-20T05:53:32.139Z,13.46
2019-05-20T05:54:32.197Z,13.47
2019-05-20T05:55:32.223Z,13.37
2019-05-20T05:56:32.280Z,13.37
2019-05-20T05:57:32.422Z,13.37
2019-05-20T05:58:32.384Z,13.33
2019-05-20T05:59:32.441Z,13.22
2019-05-20T06:00:32.473Z,13.22
2019-05-20T06:01:32.519Z,13.29
2019-05-20T06:02:32.559Z,13.27
2019-05-20T06:03:32.617Z,13.20
2019-05-20T06:04:32.761Z,13.21
2019-05-20T06:05:32.705Z,13.32
2019-05-20T06:06:32.752Z,13.17
2019-05-20T06:07:32.800Z,13.18
2019-05-20T06:08:32.853Z,13.17
2019-05-20T06:09:32.925Z,13.29
2019-05-20T06:10:35.638Z,13.24
2019-05-20T06:11:33.001Z,13.25
2019-05-20T06:12:33.040Z,13.21
2019-05-20T06:13:33.100Z,13.25
2019-05-20T06:14:33.134Z,13.24
2019-05-20T06:15:33.223Z,13.33
2019-05-20T06:16:36.421Z,13.32
2019-05-20T06:17:33.291Z,13.30
2019-05-20T06:18:33.335Z,13.33
2019-05-20T06:19:33.378Z,13.32
2019-05-20T06:20:33.449Z,13.37
2019-05-20T06:21:33.477Z,13.37
2019-05-20T06:22:33.520Z,13.33
2019-05-20T06:23:33.580Z,13.37
2019-05-20T06:24:33.616Z,13.32
2019-05-20T06:25:33.703Z,13.36
2019-05-20T06:26:33.713Z,13.30
2019-05-20T06:27:33.765Z,13.33
2019-05-20T06:28:33.815Z,13.36
2019-05-20T06:29:33.942Z,13.36
2019-05-20T06:30:33.928Z,13.37
2019-05-20T06:31:33.957Z,13.25
2019-05-20T06:32:34.005Z,13.33
2019-05-20T06:33:34.049Z,13.30
2019-05-20T06:34:34.476Z,13.32
2019-05-20T06:35:34.172Z,13.30
2019-05-20T06:36:34.193Z,13.25
2019-05-20T06:37:34.241Z,13.18
2019-05-20T06:38:34.291Z,13.22
2019-05-20T06:39:34.339Z,13.21
2019-05-20T06:40:34.551Z,13.32
2019-05-20T06:41:34.433Z,13.27
2019-05-20T06:42:34.481Z,13.24
2019-05-20T06:43:34.536Z,13.24
2019-05-20T06:44:51.432Z,13.36
2019-05-20T06:45:34.650Z,13.25
2019-05-20T06:46:34.692Z,13.30
2019-05-20T06:47:34.844Z,13.30
2019-05-20T06:48:34.775Z,13.36
2019-05-20T06:49:34.828Z,13.37
2019-05-20T06:50:34.893Z,13.33
2019-05-20T06:51:34.934Z,13.36
2019-05-20T06:52:36.263Z,13.24
2019-05-20T06:53:35.020Z,13.17
2019-05-20T06:54:35.062Z,13.21
2019-05-20T06:55:35.112Z,13.27
2019-05-20T06:56:35.191Z,13.25
2019-05-20T06:57:35.211Z,13.29
2019-05-20T06:58:35.252Z,13.25
2019-05-20T06:59:35.300Z,13.24
2019-05-20T07:00:35.355Z,13.27
2019-05-20T07:01:35.428Z,13.20
2019-05-20T07:02:35.447Z,13.24
2019-05-20T07:03:35.506Z,13.21
2019-05-20T07:04:35.544Z,13.22
2019-05-20T07:05:35.585Z,13.21
2019-05-20T07:06:45.316Z,13.29
2019-05-20T07:07:35.806Z,13.33
2019-05-20T07:08:35.738Z,13.40
2019-05-20T07:09:35.806Z,13.38
2019-05-20T07:10:35.823Z,13.40
2019-05-20T07:11:35.901Z,13.40
2019-05-20T07:12:41.069Z,13.33
2019-05-20T07:13:35.980Z,13.33
2019-05-20T07:14:36.157Z,13.36
2019-05-20T07:15:36.071Z,13.30
2019-05-20T07:16:36.141Z,13.33
2019-05-20T07:17:36.162Z,13.30
2019-05-20T07:18:36.353Z,13.33
2019-05-20T07:19:36.265Z,13.30
2019-05-20T07:20:36.323Z,13.41
2019-05-20T07:21:36.372Z,13.36
2019-05-20T07:22:53.882Z,13.21
2019-05-20T07:23:36.459Z,13.24
2019-05-20T07:24:36.498Z,13.17
2019-05-20T07:25:36.652Z,13.18
2019-05-20T07:26:36.622Z,13.21
2019-05-20T07:27:36.683Z,13.25
2019-05-20T07:28:36.706Z,13.22
2019-05-20T07:29:36.736Z,13.21
2019-05-20T07:30:36.795Z,13.21
2019-05-20T07:31:36.867Z,13.33
2019-05-20T07:32:36.996Z,13.36
2019-05-20T07:33:36.943Z,13.37
2019-05-20T07:34:36.977Z,13.30
2019-05-20T07:35:37.026Z,13.43
2019-05-20T07:36:37.074Z,13.46
2019-05-20T07:37:37.184Z,13.47
2019-05-20T07:38:37.180Z,13.51
2019-05-20T07:39:37.267Z,13.41
2019-05-20T07:40:37.273Z,13.40
2019-05-20T07:41:41.170Z,13.38
2019-05-20T07:42:37.383Z,13.51
2019-05-20T07:43:37.447Z,13.43
2019-05-20T07:44:37.458Z,13.46
2019-05-20T07:45:37.521Z,13.43
2019-05-20T07:46:37.585Z,13.49
2019-05-20T07:47:37.620Z,13.55
2019-05-20T07:48:37.805Z,13.44
2019-05-20T07:49:37.699Z,13.52
2019-05-20T07:50:37.754Z,13.47
2019-05-20T07:51:37.822Z,13.51
2019-05-20T07:52:37.872Z,13.52
2019-05-20T07:53:37.902Z,13.56
2019-05-20T07:54:37.940Z,13.49
2019-05-20T07:55:37.984Z,13.52
2019-05-20T07:56:38.039Z,13.51
2019-05-20T07:57:38.145Z,13.52
2019-05-20T07:58:38.173Z,13.59
2019-05-20T07:59:38.183Z,13.58
2019-05-20T08:00:38.231Z,13.49
2019-05-20T08:01:38.281Z,13.49
2019-05-20T08:02:38.340Z,13.58
2019-05-20T08:03:38.802Z,13.58
2019-05-20T08:04:38.452Z,13.59
2019-05-20T08:05:38.473Z,13.62
2019-05-20T08:06:38.521Z,13.54
2019-05-20T08:07:51.397Z,13.58
2019-05-20T08:08:38.640Z,13.51
2019-05-20T08:09:45.356Z,13.62
2019-05-20T08:10:38.709Z,13.49
2019-05-20T08:11:38.771Z,13.49
2019-05-20T08:12:38.817Z,13.59
2019-05-20T08:13:38.879Z,13.62
2019-05-20T08:14:38.919Z,13.73
2019-05-20T08:15:38.948Z,13.69
2019-05-20T08:16:39.023Z,13.69
2019-05-20T08:17:39.044Z,13.59
2019-05-20T08:18:39.118Z,13.69
2019-05-20T08:19:39.145Z,13.70
2019-05-20T08:20:39.201Z,13.73
2019-05-20T08:21:39.255Z,13.65
2019-05-20T08:22:39.317Z,13.76
2019-05-20T08:23:39.365Z,13.71
2019-05-20T08:24:39.403Z,13.69
2019-05-20T08:25:39.457Z,13.58
2019-05-20T08:26:39.500Z,13.55
2019-05-20T08:27:39.536Z,13.62
2019-05-20T08:28:39.625Z,13.63
2019-05-20T08:29:39.622Z,13.61
2019-05-20T08:30:39.683Z,13.54
2019-05-20T08:31:39.723Z,13.49
2019-05-20T08:32:39.787Z,13.55
2019-05-20T08:33:39.841Z,13.55
2019-05-20T08:34:40.529Z,13.52
2019-05-20T08:35:39.938Z,13.52
2019-05-20T08:36:39.972Z,13.52
2019-05-20T08:37:45.213Z,13.62
2019-05-20T08:38:40.069Z,13.46
2019-05-20T08:39:40.135Z,13.49
2019-05-20T08:40:40.185Z,13.46
2019-05-20T08:41:40.204Z,13.62
2019-05-20T08:42:40.290Z,13.61
2019-05-20T08:43:40.319Z,13.61
2019-05-20T08:44:40.389Z,13.67
2019-05-20T08:45:40.410Z,13.61
2019-05-20T08:46:40.450Z,13.59
2019-05-20T08:47:40.494Z,13.59
2019-05-20T08:48:40.544Z,13.65
2019-05-20T08:49:40.723Z,13.71
2019-05-20T08:50:40.653Z,13.59
2019-05-20T08:51:40.695Z,13.63
2019-05-20T08:52:40.745Z,13.67
2019-05-20T08:53:40.781Z,13.76
2019-05-20T08:54:40.852Z,13.81
2019-05-20T08:55:40.901Z,13.83
2019-05-20T08:56:40.933Z,13.89
2019-05-20T08:57:40.987Z,13.96
2019-05-20T08:58:41.028Z,13.94
2019-05-20T08:59:41.089Z,13.92
2019-05-20T09:00:41.148Z,13.89
2019-05-20T09:01:41.181Z,13.84
2019-05-20T09:02:41.218Z,13.83
2019-05-20T09:03:41.265Z,13.84
2019-05-20T09:04:41.415Z,13.79
2019-05-20T09:05:41.403Z,13.91
2019-05-20T09:06:41.409Z,13.80
2019-05-20T09:07:41.479Z,13.79
2019-05-20T09:08:41.558Z,13.80
2019-05-20T09:09:41.595Z,13.80
2019-05-20T09:10:41.626Z,13.87
2019-05-20T09:11:41.666Z,13.87
2019-05-20T09:12:41.704Z,13.91
2019-05-20T09:13:41.771Z,13.95
2019-05-20T09:14:41.804Z,13.91
2019-05-20T09:15:45.108Z,13.83
2019-05-20T09:16:41.895Z,13.73
2019-05-20T09:17:41.943Z,13.80
2019-05-20T09:18:42.007Z,13.74
2019-05-20T09:19:42.042Z,13.69
2019-05-20T09:20:42.330Z,13.69
2019-05-20T09:21:42.166Z,13.70
2019-05-20T09:22:42.248Z,13.70
2019-05-20T09:23:42.244Z,13.56
2019-05-20T09:24:42.346Z,13.55
2019-05-20T09:25:42.348Z,13.58
2019-05-20T09:26:42.380Z,13.49
2019-05-20T09:27:42.427Z,13.58
2019-05-20T09:28:42.523Z,13.55
2019-05-20T09:29:42.529Z,13.55
2019-05-20T09:30:42.602Z,13.55
2019-05-20T09:31:42.641Z,13.70
2019-05-20T09:32:43.318Z,13.65
2019-05-20T09:33:42.746Z,13.61
2019-05-20T09:34:42.766Z,13.76
2019-05-20T09:35:43.093Z,13.69
2019-05-20T09:36:42.891Z,13.84
2019-05-20T09:37:42.911Z,13.83
2019-05-20T09:38:42.961Z,13.81
2019-05-20T09:39:43.004Z,13.80
2019-05-20T09:40:43.057Z,13.77
2019-05-20T09:41:43.122Z,13.79
2019-05-20T09:42:43.189Z,13.79
2019-05-20T09:43:43.214Z,13.80
2019-05-20T09:44:43.245Z,13.70
2019-05-20T09:45:43.327Z,13.62
2019-05-20T09:46:43.362Z,13.56
2019-05-20T09:47:43.404Z,13.49
2019-05-20T09:48:43.441Z,13.51
2019-05-20T09:49:43.496Z,13.44
2019-05-20T09:50:43.602Z,13.52
2019-05-20T09:51:43.605Z,13.43
2019-05-20T09:52:43.640Z,13.41
2019-05-20T09:53:43.682Z,13.44
2019-05-20T09:54:45.663Z,13.51
2019-05-20T09:55:43.776Z,13.49
2019-05-20T09:56:43.841Z,13.49
2019-05-20T09:57:43.879Z,13.52
2019-05-20T09:58:43.943Z,13.47
2019-05-20T09:59:44.015Z,13.55
2019-05-20T10:00:44.028Z,13.46
2019-05-20T10:01:44.086Z,13.44
2019-05-20T10:02:44.119Z,13.40
2019-05-20T10:03:44.180Z,13.38
2019-05-20T10:04:44.211Z,13.49
2019-05-20T10:05:44.259Z,13.43
2019-05-20T10:06:44.350Z,13.46
2019-05-20T10:07:44.394Z,13.54
2019-05-20T10:08:45.248Z,13.55
2019-05-20T10:09:44.457Z,13.59
2019-05-20T10:10:44.512Z,13.61
2019-05-20T10:11:44.554Z,13.55
2019-05-20T10:12:46.396Z,13.55
2019-05-20T10:13:44.650Z,13.61
2019-05-20T10:14:44.704Z,13.62
2019-05-20T10:15:44.750Z,13.61
2019-05-20T10:16:44.789Z,13.56
2019-05-20T10:17:44.889Z,13.58
2019-05-20T10:18:44.897Z,13.58
2019-05-20T10:19:44.937Z,13.52
2019-05-20T10:20:44.993Z,13.54
2019-05-20T10:21:45.048Z,13.49
2019-05-20T10:22:45.127Z,13.51
2019-05-20T10:23:45.149Z,13.55
2019-05-20T10:24:45.213Z,13.51
2019-05-20T10:25:45.238Z,13.49
2019-05-20T10:26:45.277Z,13.43
2019-05-20T10:27:45.349Z,13.44
2019-05-20T10:28:47.278Z,13.36
2019-05-20T10:29:45.450Z,13.38
2019-05-20T10:30:45.489Z,13.32
2019-05-20T10:31:45.525Z,13.25
2019-05-20T10:32:45.590Z,13.18
2019-05-20T10:33:45.608Z,13.15
2019-05-20T10:34:45.660Z,13.07
2019-05-20T10:35:45.706Z,13.11
2019-05-20T10:36:45.752Z,13.18
2019-05-20T10:37:45.829Z,13.21
2019-05-20T10:38:58.121Z,13.15
2019-05-20T10:39:45.953Z,13.15
2019-05-20T10:40:45.951Z,13.12
2019-05-20T10:41:46.009Z,13.09
2019-05-20T10:42:46.072Z,13.03
2019-05-20T10:43:46.097Z,13.02
2019-05-20T10:44:46.141Z,13.12
2019-05-20T10:45:46.185Z,13.15
2019-05-20T10:46:46.235Z,13.03
2019-05-20T10:47:46.304Z,13.07
2019-05-20T10:48:46.336Z,13.04
2019-05-20T10:49:46.383Z,12.99
2019-05-20T10:50:46.440Z,13.00
2019-05-20T10:51:46.511Z,13.00
2019-05-20T10:52:46.556Z,12.96
2019-05-20T10:53:46.623Z,12.89
2019-05-20T10:54:46.623Z,12.95
2019-05-20T10:55:46.665Z,12.82
2019-05-20T10:56:46.709Z,12.89
2019-05-20T10:57:46.764Z,12.95
2019-05-20T10:58:46.833Z,12.93
2019-05-20T10:59:46.863Z,12.97
2019-05-20T11:01:01.899Z,12.92
2019-05-20T11:01:46.953Z,12.93
2019-05-20T11:02:46.998Z,12.96
2019-05-20T11:03:47.073Z,13.04
2019-05-20T11:04:47.166Z,12.99
2019-05-20T11:05:47.140Z,12.99
2019-05-20T11:06:47.188Z,13.00
2019-05-20T11:07:47.270Z,12.99
2019-05-20T11:08:47.378Z,13.00
2019-05-20T11:09:47.332Z,13.06
2019-05-20T11:10:47.380Z,13.00
2019-05-20T11:11:47.425Z,13.06
2019-05-20T11:12:47.498Z,13.07
2019-05-20T11:13:47.543Z,13.09
2019-05-20T11:14:47.752Z,13.20
2019-05-20T11:15:47.680Z,13.15
2019-05-20T11:16:47.676Z,13.21
2019-05-20T11:17:47.713Z,13.27
2019-05-20T11:18:47.782Z,13.22
2019-05-20T11:19:47.830Z,13.22
2019-05-20T11:20:47.857Z,13.27
2019-05-20T11:21:47.903Z,13.22
2019-05-20T11:22:48.022Z,13.04
2019-05-20T11:23:48.003Z,13.09
2019-05-20T11:24:48.080Z,13.07
2019-05-20T11:25:48.102Z,13.17
2019-05-20T11:26:48.170Z,13.20
2019-05-20T11:27:48.206Z,13.17
2019-05-20T11:28:48.241Z,13.20
2019-05-20T11:29:48.410Z,13.24
2019-05-20T11:30:48.336Z,13.20
2019-05-20T11:31:48.384Z,13.12
2019-05-20T11:32:48.447Z,12.99
2019-05-20T11:33:48.492Z,13.06
2019-05-20T11:34:48.563Z,13.18
2019-05-20T11:35:48.574Z,12.99
2019-05-20T11:36:48.634Z,12.93
2019-05-20T11:37:48.680Z,12.96
2019-05-20T11:38:48.718Z,13.03
2019-05-20T11:39:48.790Z,13.00
2019-05-20T11:40:48.813Z,13.00
2019-05-20T11:41:53.372Z,13.02
2019-05-20T11:42:48.923Z,12.95
2019-05-20T11:43:49.661Z,13.03
2019-05-20T11:44:49.043Z,13.00
2019-05-20T11:45:49.060Z,13.02
2019-05-20T11:46:49.100Z,13.02
2019-05-20T11:47:49.174Z,13.17
2019-05-20T11:48:49.204Z,13.03
2019-05-20T11:49:49.274Z,12.93
2019-05-20T11:50:49.323Z,13.02
2019-05-20T11:51:49.339Z,13.12
2019-05-20T11:52:49.399Z,12.99
2019-05-20T11:53:49.437Z,13.12
2019-05-20T11:54:49.483Z,13.06
2019-05-20T11:55:49.553Z,13.21
2019-05-20T11:56:49.585Z,13.18
2019-05-20T11:57:49.645Z,13.15
2019-05-20T11:58:49.709Z,13.24
2019-05-20T11:59:49.730Z,13.20
2019-05-20T12:00:49.861Z,13.20
2019-05-20T12:01:49.822Z,13.27
2019-05-20T12:02:49.876Z,13.25
2019-05-20T12:03:49.924Z,13.04
2019-05-20T12:04:49.962Z,13.03
2019-05-20T12:05:50.038Z,13.07
2019-05-20T12:06:50.066Z,13.11
2019-05-20T12:07:50.120Z,13.15
2019-05-20T12:08:50.156Z,13.09
2019-05-20T12:09:50.448Z,13.00
2019-05-20T12:10:50.284Z,12.92
2019-05-20T12:11:50.299Z,12.96
2019-05-20T12:12:50.359Z,12.82
2019-05-20T12:13:50.394Z,12.82
2019-05-20T12:14:50.449Z,12.81
2019-05-20T12:15:50.510Z,12.93
2019-05-20T12:16:50.539Z,12.88
2019-05-20T12:17:50.696Z,12.81
2019-05-20T12:18:50.634Z,12.82
2019-05-20T12:19:50.680Z,12.79
2019-05-20T12:20:50.749Z,12.88
2019-05-20T12:21:50.786Z,12.84
2019-05-20T12:22:50.828Z,12.88
2019-05-20T12:23:50.872Z,12.78
2019-05-20T12:24:51.777Z,12.82
2019-05-20T12:25:50.991Z,12.82
2019-05-20T12:26:51.014Z,12.78
2019-05-20T12:27:51.093Z,12.82
2019-05-20T12:28:51.120Z,12.87
2019-05-20T12:29:51.167Z,12.85
2019-05-20T12:30:51.228Z,12.87
2019-05-20T12:31:51.256Z,12.82
2019-05-20T12:33:05.163Z,12.95
2019-05-20T12:33:51.348Z,12.87
2019-05-20T12:34:51.413Z,12.95
2019-05-20T12:35:51.536Z,12.95
2019-05-20T12:36:51.498Z,12.96
2019-05-20T12:37:51.550Z,12.87
2019-05-20T12:38:51.604Z,12.82
2019-05-20T12:40:05.828Z,12.87
2019-05-20T12:40:51.711Z,12.85
2019-05-20T12:41:51.764Z,12.79
2019-05-20T12:42:51.779Z,12.78
2019-05-20T12:44:10.144Z,12.88
2019-05-20T12:44:51.882Z,12.74
2019-05-20T12:45:51.935Z,12.74
2019-05-20T12:46:52.013Z,12.77
2019-05-20T12:47:52.028Z,12.74
2019-05-20T12:48:52.128Z,12.77
2019-05-20T12:49:52.116Z,12.78
2019-05-20T12:50:52.165Z,12.66
2019-05-20T12:51:52.240Z,12.63
2019-05-20T12:52:52.266Z,12.62